sensor_id;sensor_type;location;lat;lon;timestamp;temperature;humidity
65876;HTU21D;52657;51.128;5.938;2023-03-04T00:01:18;7.88;60.12
65876;HTU21D;52657;51.128;5.938;2023-03-04T00:03:43;7.90;59.71
65876;HTU21D;52657;51.128;5.938;2023-03-04T00:06:09;7.86;59.68
65876;HTU21D;52657;51.128;5.938;2023-03-04T00:08:35;7.88;59.67
65876;HTU21D;52657;51.128;5.938;2023-03-04T00:11:01;7.90;59.64
65876;HTU21D;52657;51.128;5.938;2023-03-04T00:13:26;7.90;59.58
65876;HTU21D;52657;51.128;5.938;2023-03-04T00:15:52;7.91;59.64
65876;HTU21D;52657;51.128;5.938;2023-03-04T00:18:18;7.92;59.78
65876;HTU21D;52657;51.128;5.938;2023-03-04T00:20:45;7.96;59.61
65876;HTU21D;52657;51.128;5.938;2023-03-04T00:23:11;7.99;59.51
65876;HTU21D;52657;51.128;5.938;2023-03-04T00:25:37;7.98;59.70
65876;HTU21D;52657;51.128;5.938;2023-03-04T00:28:03;7.98;59.73
65876;HTU21D;52657;51.128;5.938;2023-03-04T00:30:29;8.00;59.68
65876;HTU21D;52657;51.128;5.938;2023-03-04T00:32:55;8.03;59.64
65876;HTU21D;52657;51.128;5.938;2023-03-04T00:35:21;8.04;59.57
65876;HTU21D;52657;51.128;5.938;2023-03-04T00:37:47;8.06;59.48
65876;HTU21D;52657;51.128;5.938;2023-03-04T00:40:15;8.06;59.59
65876;HTU21D;52657;51.128;5.938;2023-03-04T00:42:41;8.05;59.72
65876;HTU21D;52657;51.128;5.938;2023-03-04T00:45:08;8.07;59.73
65876;HTU21D;52657;51.128;5.938;2023-03-04T00:47:34;8.08;59.77
65876;HTU21D;52657;51.128;5.938;2023-03-04T00:50:00;8.09;59.73
65876;HTU21D;52657;51.128;5.938;2023-03-04T00:52:26;8.11;59.88
65876;HTU21D;52657;51.128;5.938;2023-03-04T00:54:52;8.13;59.80
65876;HTU21D;52657;51.128;5.938;2023-03-04T00:57:17;8.14;59.70
65876;HTU21D;52657;51.128;5.938;2023-03-04T00:59:43;8.16;59.77
65876;HTU21D;52657;51.128;5.938;2023-03-04T01:02:11;8.16;59.77
65876;HTU21D;52657;51.128;5.938;2023-03-04T01:04:37;8.17;59.84
65876;HTU21D;52657;51.128;5.938;2023-03-04T01:07:03;8.16;59.80
65876;HTU21D;52657;51.128;5.938;2023-03-04T01:09:29;8.18;59.85
65876;HTU21D;52657;51.128;5.938;2023-03-04T01:11:55;8.18;59.93
65876;HTU21D;52657;51.128;5.938;2023-03-04T01:14:21;8.20;59.77
65876;HTU21D;52657;51.128;5.938;2023-03-04T01:16:48;8.20;59.74
65876;HTU21D;52657;51.128;5.938;2023-03-04T01:19:14;8.20;59.77
65876;HTU21D;52657;51.128;5.938;2023-03-04T01:21:40;8.18;59.86
65876;HTU21D;52657;51.128;5.938;2023-03-04T01:24:06;8.18;59.99
65876;HTU21D;52657;51.128;5.938;2023-03-04T01:26:32;8.19;60.02
65876;HTU21D;52657;51.128;5.938;2023-03-04T01:28:58;8.20;60.00
65876;HTU21D;52657;51.128;5.938;2023-03-04T01:31:23;8.16;60.11
65876;HTU21D;52657;51.128;5.938;2023-03-04T01:33:50;8.15;60.18
65876;HTU21D;52657;51.128;5.938;2023-03-04T01:36:16;8.17;60.20
65876;HTU21D;52657;51.128;5.938;2023-03-04T01:38:42;8.15;60.31
65876;HTU21D;52657;51.128;5.938;2023-03-04T01:41:10;8.16;60.23
65876;HTU21D;52657;51.128;5.938;2023-03-04T01:43:36;8.17;60.00
65876;HTU21D;52657;51.128;5.938;2023-03-04T01:46:04;8.17;60.09
65876;HTU21D;52657;51.128;5.938;2023-03-04T01:48:34;8.18;60.08
65876;HTU21D;52657;51.128;5.938;2023-03-04T01:51:09;8.17;60.01
65876;HTU21D;52657;51.128;5.938;2023-03-04T01:53:36;8.14;60.02
65876;HTU21D;52657;51.128;5.938;2023-03-04T01:56:23;8.07;59.92
65876;HTU21D;52657;51.128;5.938;2023-03-04T01:59:07;8.01;60.08
65876;HTU21D;52657;51.128;5.938;2023-03-04T02:01:33;8.02;60.19
65876;HTU21D;52657;51.128;5.938;2023-03-04T02:03:59;8.05;59.97
65876;HTU21D;52657;51.128;5.938;2023-03-04T02:06:26;8.03;59.96
65876;HTU21D;52657;51.128;5.938;2023-03-04T02:08:52;8.05;59.97
65876;HTU21D;52657;51.128;5.938;2023-03-04T02:11:17;8.05;59.98
65876;HTU21D;52657;51.128;5.938;2023-03-04T02:13:43;8.08;60.01
65876;HTU21D;52657;51.128;5.938;2023-03-04T02:16:10;8.12;59.88
65876;HTU21D;52657;51.128;5.938;2023-03-04T02:18:35;8.17;59.89
65876;HTU21D;52657;51.128;5.938;2023-03-04T02:26:18;8.28;59.61
65876;HTU21D;52657;51.128;5.938;2023-03-04T02:28:49;8.29;59.60
65876;HTU21D;52657;51.128;5.938;2023-03-04T02:34:05;8.31;59.64
65876;HTU21D;52657;51.128;5.938;2023-03-04T02:36:33;8.33;59.73
65876;HTU21D;52657;51.128;5.938;2023-03-04T02:39:03;8.33;59.71
65876;HTU21D;52657;51.128;5.938;2023-03-04T02:41:30;8.34;59.62
65876;HTU21D;52657;51.128;5.938;2023-03-04T02:43:57;8.34;59.67
65876;HTU21D;52657;51.128;5.938;2023-03-04T02:46:23;8.36;59.56
65876;HTU21D;52657;51.128;5.938;2023-03-04T02:48:49;8.37;59.68
65876;HTU21D;52657;51.128;5.938;2023-03-04T02:51:16;8.36;59.67
65876;HTU21D;52657;51.128;5.938;2023-03-04T02:53:42;8.36;59.66
65876;HTU21D;52657;51.128;5.938;2023-03-04T02:56:09;8.31;59.63
65876;HTU21D;52657;51.128;5.938;2023-03-04T02:58:36;8.26;59.90
65876;HTU21D;52657;51.128;5.938;2023-03-04T03:01:04;8.26;59.96
65876;HTU21D;52657;51.128;5.938;2023-03-04T03:03:31;8.27;59.82
65876;HTU21D;52657;51.128;5.938;2023-03-04T03:05:57;8.21;59.71
65876;HTU21D;52657;51.128;5.938;2023-03-04T03:08:23;8.20;59.68
65876;HTU21D;52657;51.128;5.938;2023-03-04T03:10:49;8.22;59.57
65876;HTU21D;52657;51.128;5.938;2023-03-04T03:13:15;8.21;59.51
65876;HTU21D;52657;51.128;5.938;2023-03-04T03:15:41;8.17;59.17
65876;HTU21D;52657;51.128;5.938;2023-03-04T03:18:08;8.11;58.73
65876;HTU21D;52657;51.128;5.938;2023-03-04T03:20:35;7.97;59.18
65876;HTU21D;52657;51.128;5.938;2023-03-04T03:23:01;7.92;59.31
65876;HTU21D;52657;51.128;5.938;2023-03-04T03:25:27;7.93;59.49
65876;HTU21D;52657;51.128;5.938;2023-03-04T03:27:53;7.92;59.49
65876;HTU21D;52657;51.128;5.938;2023-03-04T03:30:19;7.94;59.40
65876;HTU21D;52657;51.128;5.938;2023-03-04T03:32:45;7.96;59.67
65876;HTU21D;52657;51.128;5.938;2023-03-04T03:35:11;8.04;59.52
65876;HTU21D;52657;51.128;5.938;2023-03-04T03:37:37;8.12;59.41
65876;HTU21D;52657;51.128;5.938;2023-03-04T03:40:03;8.17;59.33
65876;HTU21D;52657;51.128;5.938;2023-03-04T03:42:29;8.27;59.20
65876;HTU21D;52657;51.128;5.938;2023-03-04T03:44:55;8.28;59.11
65876;HTU21D;52657;51.128;5.938;2023-03-04T03:47:21;8.29;59.09
65876;HTU21D;52657;51.128;5.938;2023-03-04T03:49:47;8.30;59.16
65876;HTU21D;52657;51.128;5.938;2023-03-04T03:52:13;8.31;59.17
65876;HTU21D;52657;51.128;5.938;2023-03-04T03:54:39;8.33;59.16
65876;HTU21D;52657;51.128;5.938;2023-03-04T03:57:05;8.34;59.09
65876;HTU21D;52657;51.128;5.938;2023-03-04T03:59:31;8.41;58.82
65876;HTU21D;52657;51.128;5.938;2023-03-04T04:01:56;8.29;59.10
65876;HTU21D;52657;51.128;5.938;2023-03-04T04:04:22;8.24;59.45
65876;HTU21D;52657;51.128;5.938;2023-03-04T04:06:48;8.22;59.47
65876;HTU21D;52657;51.128;5.938;2023-03-04T04:09:13;8.18;59.62
65876;HTU21D;52657;51.128;5.938;2023-03-04T04:11:39;8.15;59.70
65876;HTU21D;52657;51.128;5.938;2023-03-04T04:14:05;8.17;59.64
65876;HTU21D;52657;51.128;5.938;2023-03-04T04:16:31;8.11;59.54
65876;HTU21D;52657;51.128;5.938;2023-03-04T04:18:57;8.02;59.71
65876;HTU21D;52657;51.128;5.938;2023-03-04T04:21:22;7.98;59.99
65876;HTU21D;52657;51.128;5.938;2023-03-04T04:23:48;7.99;59.90
65876;HTU21D;52657;51.128;5.938;2023-03-04T04:26:14;8.01;60.09
65876;HTU21D;52657;51.128;5.938;2023-03-04T04:28:39;8.07;59.98
65876;HTU21D;52657;51.128;5.938;2023-03-04T04:31:07;8.12;59.74
65876;HTU21D;52657;51.128;5.938;2023-03-04T04:33:34;8.14;59.71
65876;HTU21D;52657;51.128;5.938;2023-03-04T04:36:00;8.16;59.73
65876;HTU21D;52657;51.128;5.938;2023-03-04T04:38:26;8.22;59.71
65876;HTU21D;52657;51.128;5.938;2023-03-04T04:40:52;8.24;59.52
65876;HTU21D;52657;51.128;5.938;2023-03-04T04:43:18;8.23;59.72
65876;HTU21D;52657;51.128;5.938;2023-03-04T04:45:43;8.27;59.59
65876;HTU21D;52657;51.128;5.938;2023-03-04T04:48:09;8.30;59.51
65876;HTU21D;52657;51.128;5.938;2023-03-04T04:50:35;8.35;59.34
65876;HTU21D;52657;51.128;5.938;2023-03-04T04:53:01;8.28;59.48
65876;HTU21D;52657;51.128;5.938;2023-03-04T04:55:27;8.24;59.61
65876;HTU21D;52657;51.128;5.938;2023-03-04T04:57:52;8.22;59.66
65876;HTU21D;52657;51.128;5.938;2023-03-04T05:00:18;8.24;59.80
65876;HTU21D;52657;51.128;5.938;2023-03-04T05:02:44;8.24;59.86
65876;HTU21D;52657;51.128;5.938;2023-03-04T05:05:10;8.26;59.80
65876;HTU21D;52657;51.128;5.938;2023-03-04T05:07:36;8.30;59.87
65876;HTU21D;52657;51.128;5.938;2023-03-04T05:10:02;8.35;59.82
65876;HTU21D;52657;51.128;5.938;2023-03-04T05:12:28;8.37;59.67
65876;HTU21D;52657;51.128;5.938;2023-03-04T05:14:54;8.39;59.67
65876;HTU21D;52657;51.128;5.938;2023-03-04T05:17:23;8.42;59.68
65876;HTU21D;52657;51.128;5.938;2023-03-04T05:19:49;8.42;59.72
65876;HTU21D;52657;51.128;5.938;2023-03-04T05:22:15;8.46;59.80
65876;HTU21D;52657;51.128;5.938;2023-03-04T05:24:40;8.46;59.83
65876;HTU21D;52657;51.128;5.938;2023-03-04T05:27:06;8.48;59.90
65876;HTU21D;52657;51.128;5.938;2023-03-04T05:29:32;8.48;59.93
65876;HTU21D;52657;51.128;5.938;2023-03-04T05:31:58;8.49;59.95
65876;HTU21D;52657;51.128;5.938;2023-03-04T05:34:23;8.45;59.89
65876;HTU21D;52657;51.128;5.938;2023-03-04T05:36:49;8.36;60.17
65876;HTU21D;52657;51.128;5.938;2023-03-04T05:39:15;8.30;60.59
65876;HTU21D;52657;51.128;5.938;2023-03-04T05:41:41;8.30;60.73
65876;HTU21D;52657;51.128;5.938;2023-03-04T05:44:07;8.32;60.65
65876;HTU21D;52657;51.128;5.938;2023-03-04T05:46:32;8.32;60.66
65876;HTU21D;52657;51.128;5.938;2023-03-04T05:48:58;8.34;60.67
65876;HTU21D;52657;51.128;5.938;2023-03-04T05:51:24;8.35;60.76
65876;HTU21D;52657;51.128;5.938;2023-03-04T05:53:50;8.38;60.68
65876;HTU21D;52657;51.128;5.938;2023-03-04T05:56:18;8.42;60.70
65876;HTU21D;52657;51.128;5.938;2023-03-04T05:58:45;8.43;60.53
65876;HTU21D;52657;51.128;5.938;2023-03-04T06:01:14;8.38;60.39
65876;HTU21D;52657;51.128;5.938;2023-03-04T06:03:40;8.26;60.56
65876;HTU21D;52657;51.128;5.938;2023-03-04T06:06:08;8.23;60.81
65876;HTU21D;52657;51.128;5.938;2023-03-04T06:08:34;8.26;60.85
65876;HTU21D;52657;51.128;5.938;2023-03-04T06:10:59;8.26;60.96
65876;HTU21D;52657;51.128;5.938;2023-03-04T06:13:26;8.31;60.94
65876;HTU21D;52657;51.128;5.938;2023-03-04T06:15:54;8.34;60.97
65876;HTU21D;52657;51.128;5.938;2023-03-04T06:18:21;8.38;60.92
65876;HTU21D;52657;51.128;5.938;2023-03-04T06:20:47;8.42;60.88
65876;HTU21D;52657;51.128;5.938;2023-03-04T06:23:13;8.47;60.80
65876;HTU21D;52657;51.128;5.938;2023-03-04T06:25:39;8.47;60.71
65876;HTU21D;52657;51.128;5.938;2023-03-04T06:28:05;8.47;60.71
65876;HTU21D;52657;51.128;5.938;2023-03-04T06:30:31;8.52;60.59
65876;HTU21D;52657;51.128;5.938;2023-03-04T06:32:57;8.56;60.49
65876;HTU21D;52657;51.128;5.938;2023-03-04T06:35:22;8.59;60.44
65876;HTU21D;52657;51.128;5.938;2023-03-04T06:37:48;8.59;60.42
65876;HTU21D;52657;51.128;5.938;2023-03-04T06:40:14;8.53;60.37
65876;HTU21D;52657;51.128;5.938;2023-03-04T06:42:40;8.49;60.47
65876;HTU21D;52657;51.128;5.938;2023-03-04T06:45:07;8.47;60.81
65876;HTU21D;52657;51.128;5.938;2023-03-04T06:47:36;8.48;60.94
65876;HTU21D;52657;51.128;5.938;2023-03-04T06:50:03;8.49;61.02
65876;HTU21D;52657;51.128;5.938;2023-03-04T06:52:29;8.46;61.15
65876;HTU21D;52657;51.128;5.938;2023-03-04T06:54:55;8.46;61.14
65876;HTU21D;52657;51.128;5.938;2023-03-04T06:57:20;8.46;61.23
65876;HTU21D;52657;51.128;5.938;2023-03-04T06:59:46;8.48;61.26
65876;HTU21D;52657;51.128;5.938;2023-03-04T07:02:12;8.45;61.28
65876;HTU21D;52657;51.128;5.938;2023-03-04T07:04:38;8.44;61.36
65876;HTU21D;52657;51.128;5.938;2023-03-04T07:07:04;8.42;61.18
65876;HTU21D;52657;51.128;5.938;2023-03-04T07:09:30;8.38;61.12
65876;HTU21D;52657;51.128;5.938;2023-03-04T07:11:56;8.39;61.12
65876;HTU21D;52657;51.128;5.938;2023-03-04T07:14:21;8.44;60.99
65876;HTU21D;52657;51.128;5.938;2023-03-04T07:16:48;8.43;60.47
65876;HTU21D;52657;51.128;5.938;2023-03-04T07:19:13;8.35;60.48
65876;HTU21D;52657;51.128;5.938;2023-03-04T07:21:39;8.34;60.82
65876;HTU21D;52657;51.128;5.938;2023-03-04T07:24:05;8.30;60.63
65876;HTU21D;52657;51.128;5.938;2023-03-04T07:26:30;8.35;60.59
65876;HTU21D;52657;51.128;5.938;2023-03-04T07:28:56;8.38;60.34
65876;HTU21D;52657;51.128;5.938;2023-03-04T07:31:28;8.37;60.28
65876;HTU21D;52657;51.128;5.938;2023-03-04T07:34:03;8.35;60.16
65876;HTU21D;52657;51.128;5.938;2023-03-04T07:36:30;8.36;60.23
65876;HTU21D;52657;51.128;5.938;2023-03-04T07:39:02;8.44;60.19
65876;HTU21D;52657;51.128;5.938;2023-03-04T07:41:31;8.52;60.08
65876;HTU21D;52657;51.128;5.938;2023-03-04T07:44:01;8.57;59.99
65876;HTU21D;52657;51.128;5.938;2023-03-04T07:46:31;8.52;59.93
65876;HTU21D;52657;51.128;5.938;2023-03-04T07:48:57;8.49;60.12
65876;HTU21D;52657;51.128;5.938;2023-03-04T07:51:24;8.45;60.56
65876;HTU21D;52657;51.128;5.938;2023-03-04T07:53:55;8.48;60.72
65876;HTU21D;52657;51.128;5.938;2023-03-04T07:56:23;8.53;60.44
65876;HTU21D;52657;51.128;5.938;2023-03-04T07:58:50;8.55;60.53
65876;HTU21D;52657;51.128;5.938;2023-03-04T08:01:26;8.53;60.70
65876;HTU21D;52657;51.128;5.938;2023-03-04T08:03:52;8.59;60.90
65876;HTU21D;52657;51.128;5.938;2023-03-04T08:06:19;8.62;60.91
65876;HTU21D;52657;51.128;5.938;2023-03-04T08:08:46;8.59;61.02
65876;HTU21D;52657;51.128;5.938;2023-03-04T08:11:19;8.59;60.96
65876;HTU21D;52657;51.128;5.938;2023-03-04T08:13:46;8.52;61.42
65876;HTU21D;52657;51.128;5.938;2023-03-04T08:16:15;8.52;61.43
65876;HTU21D;52657;51.128;5.938;2023-03-04T08:18:46;8.48;61.86
65876;HTU21D;52657;51.128;5.938;2023-03-04T08:21:15;8.55;61.93
65876;HTU21D;52657;51.128;5.938;2023-03-04T08:23:44;8.61;61.87
65876;HTU21D;52657;51.128;5.938;2023-03-04T08:26:26;8.71;61.89
65876;HTU21D;52657;51.128;5.938;2023-03-04T08:28:53;8.76;61.89
65876;HTU21D;52657;51.128;5.938;2023-03-04T08:31:24;8.79;61.92
65876;HTU21D;52657;51.128;5.938;2023-03-04T08:33:49;8.81;62.00
65876;HTU21D;52657;51.128;5.938;2023-03-04T08:36:17;8.82;62.18
65876;HTU21D;52657;51.128;5.938;2023-03-04T08:38:43;8.88;62.24
65876;HTU21D;52657;51.128;5.938;2023-03-04T08:41:09;8.96;62.12
65876;HTU21D;52657;51.128;5.938;2023-03-04T08:43:35;9.05;61.99
65876;HTU21D;52657;51.128;5.938;2023-03-04T08:46:01;9.00;61.94
65876;HTU21D;52657;51.128;5.938;2023-03-04T08:48:28;8.98;62.20
65876;HTU21D;52657;51.128;5.938;2023-03-04T08:50:53;9.04;62.34
65876;HTU21D;52657;51.128;5.938;2023-03-04T08:53:20;9.25;62.35
65876;HTU21D;52657;51.128;5.938;2023-03-04T08:55:47;9.41;61.79
65876;HTU21D;52657;51.128;5.938;2023-03-04T08:58:14;9.54;61.54
65876;HTU21D;52657;51.128;5.938;2023-03-04T09:00:42;9.67;61.12
65876;HTU21D;52657;51.128;5.938;2023-03-04T09:03:10;9.68;60.64
65876;HTU21D;52657;51.128;5.938;2023-03-04T09:05:36;9.68;60.97
65876;HTU21D;52657;51.128;5.938;2023-03-04T09:08:03;9.82;60.60
65876;HTU21D;52657;51.128;5.938;2023-03-04T09:10:29;9.78;60.47
65876;HTU21D;52657;51.128;5.938;2023-03-04T09:12:55;9.80;60.60
65876;HTU21D;52657;51.128;5.938;2023-03-04T09:15:20;9.90;60.16
65876;HTU21D;52657;51.128;5.938;2023-03-04T09:17:49;10.29;60.99
65876;HTU21D;52657;51.128;5.938;2023-03-04T09:20:15;10.82;59.77
65876;HTU21D;52657;51.128;5.938;2023-03-04T09:22:43;11.15;58.29
65876;HTU21D;52657;51.128;5.938;2023-03-04T09:25:13;11.26;57.28
65876;HTU21D;52657;51.128;5.938;2023-03-04T09:27:40;11.33;56.93
65876;HTU21D;52657;51.128;5.938;2023-03-04T09:30:07;11.38;56.44
65876;HTU21D;52657;51.128;5.938;2023-03-04T09:32:33;11.34;56.32
65876;HTU21D;52657;51.128;5.938;2023-03-04T09:35:03;11.34;56.22
65876;HTU21D;52657;51.128;5.938;2023-03-04T09:37:30;11.39;55.91
65876;HTU21D;52657;51.128;5.938;2023-03-04T09:39:58;11.31;55.36
65876;HTU21D;52657;51.128;5.938;2023-03-04T09:42:38;11.34;55.12
65876;HTU21D;52657;51.128;5.938;2023-03-04T09:45:10;11.43;55.21
65876;HTU21D;52657;51.128;5.938;2023-03-04T09:47:40;11.76;54.89
65876;HTU21D;52657;51.128;5.938;2023-03-04T09:50:08;12.26;54.76
65876;HTU21D;52657;51.128;5.938;2023-03-04T09:55:28;12.95;52.06
65876;HTU21D;52657;51.128;5.938;2023-03-04T10:00:45;12.47;53.32
65876;HTU21D;52657;51.128;5.938;2023-03-04T10:03:19;12.18;54.45
65876;HTU21D;52657;51.128;5.938;2023-03-04T10:06:07;11.99;55.50
65876;HTU21D;52657;51.128;5.938;2023-03-04T10:08:54;11.93;56.26
65876;HTU21D;52657;51.128;5.938;2023-03-04T10:11:41;11.93;56.25
65876;HTU21D;52657;51.128;5.938;2023-03-04T10:16:48;11.86;56.02
65876;HTU21D;52657;51.128;5.938;2023-03-04T10:21:50;11.72;55.51
65876;HTU21D;52657;51.128;5.938;2023-03-04T10:24:23;11.63;55.15
65876;HTU21D;52657;51.128;5.938;2023-03-04T10:26:56;11.49;55.67
65876;HTU21D;52657;51.128;5.938;2023-03-04T10:29:29;11.40;55.71
65876;HTU21D;52657;51.128;5.938;2023-03-04T10:31:56;11.30;55.62
65876;HTU21D;52657;51.128;5.938;2023-03-04T10:34:22;11.17;56.26
65876;HTU21D;52657;51.128;5.938;2023-03-04T10:39:25;11.04;56.64
65876;HTU21D;52657;51.128;5.938;2023-03-04T10:42:01;11.03;57.19
65876;HTU21D;52657;51.128;5.938;2023-03-04T10:44:28;11.12;57.26
65876;HTU21D;52657;51.128;5.938;2023-03-04T10:46:56;11.19;56.95
65876;HTU21D;52657;51.128;5.938;2023-03-04T10:49:23;11.24;56.97
65876;HTU21D;52657;51.128;5.938;2023-03-04T10:57:00;11.43;56.48
65876;HTU21D;52657;51.128;5.938;2023-03-04T10:59:38;11.52;56.45
65876;HTU21D;52657;51.128;5.938;2023-03-04T11:04:52;11.58;55.99
65876;HTU21D;52657;51.128;5.938;2023-03-04T11:07:24;11.66;55.80
65876;HTU21D;52657;51.128;5.938;2023-03-04T11:09:50;11.66;55.55
65876;HTU21D;52657;51.128;5.938;2023-03-04T11:12:20;11.71;55.47
65876;HTU21D;52657;51.128;5.938;2023-03-04T11:14:48;11.69;54.79
65876;HTU21D;52657;51.128;5.938;2023-03-04T11:19:47;11.57;55.18
65876;HTU21D;52657;51.128;5.938;2023-03-04T11:22:19;11.55;55.58
65876;HTU21D;52657;51.128;5.938;2023-03-04T11:24:55;11.61;55.49
65876;HTU21D;52657;51.128;5.938;2023-03-04T11:27:41;11.60;55.39
65876;HTU21D;52657;51.128;5.938;2023-03-04T11:36:07;11.59;55.39
65876;HTU21D;52657;51.128;5.938;2023-03-04T11:38:48;11.67;54.97
65876;HTU21D;52657;51.128;5.938;2023-03-04T11:44:02;11.71;54.49
65876;HTU21D;52657;51.128;5.938;2023-03-04T11:46:39;11.73;54.55
65876;HTU21D;52657;51.128;5.938;2023-03-04T12:16:18;11.60;54.68
65876;HTU21D;52657;51.128;5.938;2023-03-04T12:22:15;11.60;54.94
65876;HTU21D;52657;51.128;5.938;2023-03-04T12:25:07;11.70;54.83
65876;HTU21D;52657;51.128;5.938;2023-03-04T12:33:54;11.63;55.10
65876;HTU21D;52657;51.128;5.938;2023-03-04T12:39:36;11.67;55.30
65876;HTU21D;52657;51.128;5.938;2023-03-04T12:42:15;11.73;55.30
65876;HTU21D;52657;51.128;5.938;2023-03-04T12:45:03;11.69;54.79
65876;HTU21D;52657;51.128;5.938;2023-03-04T12:55:41;11.94;54.95
65876;HTU21D;52657;51.128;5.938;2023-03-04T12:58:23;12.03;54.57
65876;HTU21D;52657;51.128;5.938;2023-03-04T13:01:11;12.08;54.31
65876;HTU21D;52657;51.128;5.938;2023-03-04T13:04:01;12.16;54.20
65876;HTU21D;52657;51.128;5.938;2023-03-04T13:07:07;12.20;54.07
65876;HTU21D;52657;51.128;5.938;2023-03-04T13:10:00;12.21;54.26
65876;HTU21D;52657;51.128;5.938;2023-03-04T13:12:49;12.28;53.83
65876;HTU21D;52657;51.128;5.938;2023-03-04T13:17:51;12.30;53.82
65876;HTU21D;52657;51.128;5.938;2023-03-04T13:20:40;12.28;53.84
65876;HTU21D;52657;51.128;5.938;2023-03-04T13:28:14;12.12;54.00
65876;HTU21D;52657;51.128;5.938;2023-03-04T13:31:07;12.05;54.36
65876;HTU21D;52657;51.128;5.938;2023-03-04T13:36:25;12.01;54.87
65876;HTU21D;52657;51.128;5.938;2023-03-04T13:41:49;12.03;54.90
65876;HTU21D;52657;51.128;5.938;2023-03-04T13:44:35;12.06;54.94
65876;HTU21D;52657;51.128;5.938;2023-03-04T13:47:25;12.12;54.78
65876;HTU21D;52657;51.128;5.938;2023-03-04T13:50:23;12.14;54.55
65876;HTU21D;52657;51.128;5.938;2023-03-04T13:52:51;12.14;54.49
65876;HTU21D;52657;51.128;5.938;2023-03-04T13:55:38;12.05;54.91
65876;HTU21D;52657;51.128;5.938;2023-03-04T13:58:20;12.06;54.81
65876;HTU21D;52657;51.128;5.938;2023-03-04T14:00:52;12.04;55.00
65876;HTU21D;52657;51.128;5.938;2023-03-04T14:03:26;12.01;54.75
65876;HTU21D;52657;51.128;5.938;2023-03-04T14:06:17;11.99;54.84
65876;HTU21D;52657;51.128;5.938;2023-03-04T14:08:46;11.98;55.07
65876;HTU21D;52657;51.128;5.938;2023-03-04T14:11:23;12.00;55.04
65876;HTU21D;52657;51.128;5.938;2023-03-04T14:13:50;12.02;55.00
65876;HTU21D;52657;51.128;5.938;2023-03-04T14:16:21;12.02;55.00
65876;HTU21D;52657;51.128;5.938;2023-03-04T14:19:13;12.01;55.13
65876;HTU21D;52657;51.128;5.938;2023-03-04T14:21:44;11.97;55.35
65876;HTU21D;52657;51.128;5.938;2023-03-04T14:24:20;12.02;55.42
65876;HTU21D;52657;51.128;5.938;2023-03-04T14:27:05;11.96;55.77
65876;HTU21D;52657;51.128;5.938;2023-03-04T14:29:34;11.97;55.78
65876;HTU21D;52657;51.128;5.938;2023-03-04T14:32:00;11.94;55.91
65876;HTU21D;52657;51.128;5.938;2023-03-04T14:34:35;11.91;56.23
65876;HTU21D;52657;51.128;5.938;2023-03-04T14:37:03;11.89;56.63
65876;HTU21D;52657;51.128;5.938;2023-03-04T14:39:32;11.90;56.72
65876;HTU21D;52657;51.128;5.938;2023-03-04T14:42:13;11.87;57.07
65876;HTU21D;52657;51.128;5.938;2023-03-04T14:44:45;11.90;57.12
65876;HTU21D;52657;51.128;5.938;2023-03-04T14:49:48;11.88;57.48
65876;HTU21D;52657;51.128;5.938;2023-03-04T14:55:17;11.87;57.71
65876;HTU21D;52657;51.128;5.938;2023-03-04T14:57:49;11.88;57.74
65876;HTU21D;52657;51.128;5.938;2023-03-04T15:02:59;11.97;57.88
65876;HTU21D;52657;51.128;5.938;2023-03-04T15:05:26;11.93;57.99
65876;HTU21D;52657;51.128;5.938;2023-03-04T15:08:05;11.89;58.41
65876;HTU21D;52657;51.128;5.938;2023-03-04T15:10:36;11.81;59.06
65876;HTU21D;52657;51.128;5.938;2023-03-04T15:13:05;11.74;59.54
65876;HTU21D;52657;51.128;5.938;2023-03-04T15:15:45;11.71;60.10
65876;HTU21D;52657;51.128;5.938;2023-03-04T15:18:21;11.68;60.34
65876;HTU21D;52657;51.128;5.938;2023-03-04T15:20:58;11.61;60.86
65876;HTU21D;52657;51.128;5.938;2023-03-04T15:23:25;11.58;61.34
65876;HTU21D;52657;51.128;5.938;2023-03-04T15:26:00;11.57;61.75
65876;HTU21D;52657;51.128;5.938;2023-03-04T15:28:35;11.53;62.05
65876;HTU21D;52657;51.128;5.938;2023-03-04T15:31:03;11.44;62.42
65876;HTU21D;52657;51.128;5.938;2023-03-04T15:33:29;11.42;62.76
65876;HTU21D;52657;51.128;5.938;2023-03-04T15:36:01;11.43;62.98
65876;HTU21D;52657;51.128;5.938;2023-03-04T15:38:28;11.41;63.35
65876;HTU21D;52657;51.128;5.938;2023-03-04T15:40:55;11.44;63.70
65876;HTU21D;52657;51.128;5.938;2023-03-04T15:43:23;11.44;63.73
65876;HTU21D;52657;51.128;5.938;2023-03-04T15:45:50;11.37;64.14
65876;HTU21D;52657;51.128;5.938;2023-03-04T15:48:20;11.36;64.48
65876;HTU21D;52657;51.128;5.938;2023-03-04T15:50:54;11.28;64.50
65876;HTU21D;52657;51.128;5.938;2023-03-04T15:55:58;11.27;64.84
65876;HTU21D;52657;51.128;5.938;2023-03-04T15:58:25;11.27;64.91
65876;HTU21D;52657;51.128;5.938;2023-03-04T16:00:51;11.22;65.15
65876;HTU21D;52657;51.128;5.938;2023-03-04T16:03:21;11.23;65.12
65876;HTU21D;52657;51.128;5.938;2023-03-04T16:05:49;11.20;65.07
65876;HTU21D;52657;51.128;5.938;2023-03-04T16:08:19;11.16;65.46
65876;HTU21D;52657;51.128;5.938;2023-03-04T16:10:49;11.23;65.37
65876;HTU21D;52657;51.128;5.938;2023-03-04T16:13:19;11.27;65.26
65876;HTU21D;52657;51.128;5.938;2023-03-04T16:15:46;11.31;65.04
65876;HTU21D;52657;51.128;5.938;2023-03-04T16:18:13;11.36;64.90
65876;HTU21D;52657;51.128;5.938;2023-03-04T16:20:43;11.37;64.77
65876;HTU21D;52657;51.128;5.938;2023-03-04T16:23:18;11.36;64.80
65876;HTU21D;52657;51.128;5.938;2023-03-04T16:25:46;11.36;64.98
65876;HTU21D;52657;51.128;5.938;2023-03-04T16:28:13;11.37;65.01
65876;HTU21D;52657;51.128;5.938;2023-03-04T16:30:39;11.39;64.92
65876;HTU21D;52657;51.128;5.938;2023-03-04T16:33:06;11.38;64.91
65876;HTU21D;52657;51.128;5.938;2023-03-04T16:35:35;11.38;64.86
65876;HTU21D;52657;51.128;5.938;2023-03-04T16:38:01;11.32;65.25
65876;HTU21D;52657;51.128;5.938;2023-03-04T16:40:29;11.32;65.43
65876;HTU21D;52657;51.128;5.938;2023-03-04T16:42:56;11.32;65.50
65876;HTU21D;52657;51.128;5.938;2023-03-04T16:45:26;11.33;65.58
65876;HTU21D;52657;51.128;5.938;2023-03-04T16:47:54;11.31;65.60
65876;HTU21D;52657;51.128;5.938;2023-03-04T16:50:23;11.32;65.75
65876;HTU21D;52657;51.128;5.938;2023-03-04T16:52:52;11.33;65.76
65876;HTU21D;52657;51.128;5.938;2023-03-04T16:55:25;11.34;65.72
65876;HTU21D;52657;51.128;5.938;2023-03-04T16:57:53;11.31;65.64
65876;HTU21D;52657;51.128;5.938;2023-03-04T17:00:23;11.33;65.67
65876;HTU21D;52657;51.128;5.938;2023-03-04T17:02:59;11.34;65.72
65876;HTU21D;52657;51.128;5.938;2023-03-04T17:05:29;11.34;65.69
65876;HTU21D;52657;51.128;5.938;2023-03-04T17:07:55;11.34;65.50
65876;HTU21D;52657;51.128;5.938;2023-03-04T17:10:22;11.32;65.30
65876;HTU21D;52657;51.128;5.938;2023-03-04T17:12:49;11.16;65.30
65876;HTU21D;52657;51.128;5.938;2023-03-04T17:15:15;11.05;65.32
65876;HTU21D;52657;51.128;5.938;2023-03-04T17:17:42;10.97;65.62
65876;HTU21D;52657;51.128;5.938;2023-03-04T17:20:12;10.92;65.59
65876;HTU21D;52657;51.128;5.938;2023-03-04T17:22:38;10.92;65.54
65876;HTU21D;52657;51.128;5.938;2023-03-04T17:25:04;10.94;65.25
65876;HTU21D;52657;51.128;5.938;2023-03-04T17:27:35;10.89;64.79
65876;HTU21D;52657;51.128;5.938;2023-03-04T17:30:02;10.89;64.72